createdAt,value
2022-12-05T00:00:34.456Z,4.50
2022-12-05T00:03:07.164Z,4.60
2022-12-05T00:05:37.010Z,4.60
2022-12-05T00:08:07.176Z,4.50
2022-12-05T00:10:41.253Z,4.50
2022-12-05T00:13:14.308Z,4.50
2022-12-05T00:15:44.315Z,4.50
2022-12-05T00:18:15.288Z,4.50
2022-12-05T00:20:48.341Z,4.50
2022-12-05T00:23:18.181Z,4.50
2022-12-05T00:25:47.930Z,4.50
2022-12-05T00:28:20.438Z,4.50
2022-12-05T00:30:56.612Z,4.50
2022-12-05T00:33:26.622Z,4.50
2022-12-05T00:35:56.851Z,4.50
2022-12-05T00:38:27.079Z,4.50
2022-12-05T00:40:57.187Z,4.60
2022-12-05T00:43:30.129Z,4.60
2022-12-05T00:46:05.544Z,4.60
2022-12-05T00:48:36.409Z,4.60
2022-12-05T00:51:07.358Z,4.30
2022-12-05T00:53:37.566Z,4.60
2022-12-05T00:56:07.895Z,4.60
2022-12-05T00:58:40.420Z,4.50
2022-12-05T01:01:10.861Z,4.50
2022-12-05T01:03:41.109Z,4.50
2022-12-05T01:06:11.551Z,4.50
2022-12-05T01:08:41.862Z,4.50
2022-12-05T01:11:12.142Z,4.50
2022-12-05T01:13:45.038Z,4.60
2022-12-05T01:16:18.932Z,4.60
2022-12-05T01:18:48.798Z,4.50
2022-12-05T01:21:18.639Z,4.50
2022-12-05T01:23:48.431Z,4.50
2022-12-05T01:26:18.986Z,4.40
2022-12-05T01:28:51.564Z,4.40
2022-12-05T01:31:31.572Z,4.40
2022-12-05T01:34:02.112Z,4.30
2022-12-05T01:36:32.129Z,4.30
2022-12-05T01:39:02.244Z,4.30
2022-12-05T01:41:45.161Z,4.30
2022-12-05T01:44:29.986Z,4.20
2022-12-05T01:47:02.383Z,4.20
2022-12-05T01:49:34.379Z,4.20
2022-12-05T01:52:05.423Z,4.20
2022-12-05T01:54:35.703Z,4.30
2022-12-05T01:57:06.537Z,4.30
2022-12-05T01:59:38.569Z,4.30
2022-12-05T02:02:11.169Z,4.40
2022-12-05T02:04:42.126Z,4.30
2022-12-05T02:07:11.842Z,4.30
2022-12-05T02:09:41.669Z,4.40
2022-12-05T02:12:11.376Z,4.30
2022-12-05T02:14:43.426Z,4.30
2022-12-05T02:17:17.368Z,4.30
2022-12-05T02:20:01.396Z,4.30
2022-12-05T02:22:48.544Z,4.30
2022-12-05T02:25:28.208Z,4.30
2022-12-05T02:28:08.492Z,4.30
2022-12-05T02:30:43.157Z,4.40
2022-12-05T02:33:19.902Z,4.40
2022-12-05T02:35:53.314Z,4.40
2022-12-05T02:38:30.757Z,4.40
2022-12-05T02:41:07.462Z,4.40
2022-12-05T02:43:42.160Z,4.40
2022-12-05T02:46:15.884Z,4.40
2022-12-05T02:48:48.135Z,4.40
2022-12-05T02:51:20.055Z,5.50
2022-12-05T02:53:51.154Z,4.50
2022-12-05T02:56:21.360Z,4.50
2022-12-05T02:58:53.741Z,4.50
2022-12-05T03:01:27.624Z,4.60
2022-12-05T03:03:58.071Z,4.60
2022-12-05T03:06:29.981Z,4.60
2022-12-05T03:09:02.148Z,4.60
2022-12-05T03:11:34.261Z,4.60
2022-12-05T03:14:07.517Z,4.50
2022-12-05T03:16:42.651Z,4.50
2022-12-05T03:19:14.857Z,4.50
2022-12-05T03:21:48.433Z,4.60
2022-12-05T03:24:19.088Z,4.70
2022-12-05T03:26:53.458Z,4.60
2022-12-05T03:29:25.610Z,4.60
2022-12-05T03:32:01.452Z,4.60
2022-12-05T03:34:35.626Z,4.60
2022-12-05T03:37:08.372Z,4.60
2022-12-05T03:39:40.783Z,4.70
2022-12-05T03:42:12.857Z,4.80
2022-12-05T03:44:46.684Z,4.70
2022-12-05T03:47:21.669Z,4.70
2022-12-05T03:49:53.448Z,4.70
2022-12-05T03:52:26.638Z,4.70
2022-12-05T03:54:58.114Z,4.60
2022-12-05T03:57:30.212Z,4.70
2022-12-05T04:00:02.029Z,4.70
2022-12-05T04:02:35.903Z,4.60
2022-12-05T04:05:08.034Z,4.60
2022-12-05T04:07:40.832Z,4.60
2022-12-05T04:10:13.187Z,4.60
2022-12-05T04:12:44.947Z,4.50
2022-12-05T04:15:17.031Z,4.50
2022-12-05T04:17:53.448Z,4.50
2022-12-05T04:20:37.848Z,4.50
2022-12-05T04:23:07.726Z,4.60
2022-12-05T04:25:37.396Z,4.60
2022-12-05T04:28:28.642Z,4.60
2022-12-05T04:31:07.007Z,4.60
2022-12-05T04:33:42.993Z,4.60
2022-12-05T04:36:15.762Z,4.70
2022-12-05T04:38:48.766Z,4.70
2022-12-05T04:41:20.436Z,4.70
2022-12-05T04:43:50.502Z,4.70
2022-12-05T04:46:23.899Z,4.70
2022-12-05T04:49:01.305Z,4.70
2022-12-05T04:51:32.766Z,4.70
2022-12-05T04:54:05.158Z,4.70
2022-12-05T04:56:36.975Z,4.70
2022-12-05T04:59:08.040Z,4.70
2022-12-05T05:01:40.708Z,4.70
2022-12-05T05:04:19.212Z,4.70
2022-12-05T05:06:49.020Z,4.70
2022-12-05T05:09:18.741Z,4.80
2022-12-05T05:11:48.581Z,4.80
2022-12-05T05:14:18.776Z,4.80
2022-12-05T05:16:48.681Z,4.80
2022-12-05T05:19:21.154Z,4.80
2022-12-05T05:21:51.564Z,4.80
2022-12-05T05:24:23.657Z,4.80
2022-12-05T05:26:57.218Z,4.80
2022-12-05T05:29:27.485Z,4.80
2022-12-05T05:31:57.374Z,4.80
2022-12-05T05:34:29.863Z,4.80
2022-12-05T05:36:59.677Z,4.80
2022-12-05T05:39:29.936Z,4.90
2022-12-05T05:41:59.693Z,4.80
2022-12-05T05:44:29.604Z,4.80
2022-12-05T05:47:10.123Z,4.80
2022-12-05T05:49:42.646Z,4.80
2022-12-05T05:52:12.727Z,4.80
2022-12-05T05:54:42.773Z,4.80
2022-12-05T05:57:17.486Z,4.70
2022-12-05T05:59:50.215Z,4.80
2022-12-05T06:02:20.444Z,4.70
2022-12-05T06:04:53.608Z,4.80
2022-12-05T06:07:23.352Z,4.80
2022-12-05T06:09:53.153Z,4.70
2022-12-05T06:12:23.007Z,4.70
2022-12-05T06:14:55.687Z,4.70
2022-12-05T06:17:25.535Z,4.60
2022-12-05T06:19:58.437Z,4.60
2022-12-05T06:22:28.469Z,4.60
2022-12-05T06:24:58.721Z,4.60
2022-12-05T06:27:32.273Z,4.60
2022-12-05T06:30:03.330Z,4.70
2022-12-05T06:32:33.913Z,4.70
2022-12-05T06:35:15.468Z,4.70
2022-12-05T06:37:45.886Z,4.70
2022-12-05T06:40:16.302Z,4.70
2022-12-05T06:42:47.212Z,4.80
2022-12-05T06:45:17.674Z,4.80
2022-12-05T06:47:47.791Z,4.80
2022-12-05T06:50:20.413Z,4.80
2022-12-05T06:52:50.290Z,4.80
2022-12-05T06:55:23.237Z,4.80
2022-12-05T06:57:53.388Z,4.80
2022-12-05T07:00:36.208Z,4.80
2022-12-05T07:03:06.123Z,4.80
2022-12-05T07:05:38.635Z,4.80
2022-12-05T07:08:08.589Z,4.80
2022-12-05T07:10:38.269Z,4.80
2022-12-05T07:13:13.082Z,4.80
2022-12-05T07:15:46.148Z,4.80
2022-12-05T07:18:16.135Z,4.80
2022-12-05T07:21:11.351Z,4.80
2022-12-05T07:23:39.098Z,4.80
2022-12-05T07:26:09.407Z,4.80
2022-12-05T07:28:39.404Z,4.90
2022-12-05T07:31:10.045Z,4.80
2022-12-05T07:33:40.024Z,4.80
2022-12-05T07:36:13.783Z,4.80
2022-12-05T07:38:44.345Z,4.90
2022-12-05T07:41:18.079Z,4.90
2022-12-05T07:43:47.914Z,4.90
2022-12-05T07:46:19.516Z,5.00
2022-12-05T07:48:50.195Z,4.90
2022-12-05T07:51:22.902Z,5.00
2022-12-05T07:53:53.034Z,5.00
2022-12-05T07:56:28.093Z,4.90
2022-12-05T07:58:58.858Z,5.00
2022-12-05T08:01:29.581Z,4.90
2022-12-05T08:04:00.612Z,5.00
2022-12-05T08:06:33.621Z,5.00
2022-12-05T08:09:03.120Z,5.10
2022-12-05T08:11:35.810Z,5.10
2022-12-05T08:14:05.770Z,5.10
2022-12-05T08:16:35.777Z,5.10
2022-12-05T08:19:06.909Z,5.20
2022-12-05T08:21:39.037Z,5.20
2022-12-05T08:24:09.093Z,5.20
2022-12-05T08:26:39.371Z,5.20
2022-12-05T08:29:10.153Z,5.20
2022-12-05T08:31:42.015Z,5.20
2022-12-05T08:34:13.906Z,5.20
2022-12-05T08:36:46.165Z,5.20
2022-12-05T08:39:17.071Z,5.20
2022-12-05T08:41:46.840Z,5.20
2022-12-05T08:44:18.498Z,5.10
2022-12-05T08:46:49.303Z,5.10
2022-12-05T08:49:19.305Z,5.10
2022-12-05T08:51:52.516Z,5.10
2022-12-05T08:54:22.022Z,5.10
2022-12-05T08:56:53.003Z,5.10
2022-12-05T08:59:22.628Z,5.20
2022-12-05T09:01:52.819Z,5.20
2022-12-05T09:04:25.379Z,5.20
2022-12-05T09:06:57.850Z,5.20
2022-12-05T09:09:27.403Z,5.20
2022-12-05T09:11:57.891Z,5.10
2022-12-05T09:14:32.745Z,5.10
2022-12-05T09:17:04.371Z,5.10
2022-12-05T09:19:33.943Z,5.10
2022-12-05T09:22:07.506Z,5.20
2022-12-05T09:24:37.052Z,5.20
2022-12-05T09:27:06.583Z,5.30
2022-12-05T09:29:36.350Z,5.30
2022-12-05T09:32:05.998Z,5.30
2022-12-05T09:34:37.576Z,5.30
2022-12-05T09:37:37.042Z,5.30
2022-12-05T09:39:59.404Z,5.20
2022-12-05T09:42:35.290Z,5.20
2022-12-05T09:45:14.532Z,5.20
2022-12-05T09:47:50.427Z,5.20
2022-12-05T09:50:22.282Z,5.20
2022-12-05T09:53:06.816Z,5.30
2022-12-05T09:55:42.663Z,5.30
2022-12-05T09:58:19.630Z,5.30
2022-12-05T10:00:49.199Z,5.30
2022-12-05T10:03:24.747Z,5.30
2022-12-05T10:05:57.107Z,5.40
2022-12-05T10:08:29.231Z,5.40
2022-12-05T10:11:04.124Z,5.40
2022-12-05T10:13:48.111Z,5.30
2022-12-05T10:16:20.892Z,5.40
2022-12-05T10:18:53.403Z,5.40
2022-12-05T10:21:25.401Z,5.40
2022-12-05T10:23:58.814Z,5.40
2022-12-05T10:26:33.468Z,5.30
2022-12-05T10:29:05.647Z,5.30
2022-12-05T10:31:36.470Z,5.40
2022-12-05T10:34:07.798Z,5.40
2022-12-05T10:36:37.337Z,5.40
2022-12-05T10:39:11.277Z,5.40
2022-12-05T10:41:43.772Z,5.40
2022-12-05T10:44:13.487Z,5.10
2022-12-05T10:46:43.265Z,5.40
2022-12-05T10:49:14.330Z,5.40
2022-12-05T10:51:43.961Z,5.50
2022-12-05T10:54:17.825Z,5.50
2022-12-05T10:56:50.762Z,5.50
2022-12-05T10:59:23.239Z,5.50
2022-12-05T11:01:54.275Z,5.50
2022-12-05T11:04:25.483Z,5.50
2022-12-05T11:06:56.828Z,5.50
2022-12-05T11:09:28.705Z,5.50
2022-12-05T11:12:06.914Z,5.50
2022-12-05T11:14:37.123Z,5.50
2022-12-05T11:17:07.505Z,5.50
2022-12-05T11:19:37.975Z,5.60
2022-12-05T11:22:08.275Z,5.60
2022-12-05T11:24:38.785Z,5.60
2022-12-05T11:27:24.149Z,5.60
2022-12-05T11:30:00.401Z,5.60
2022-12-05T11:32:31.961Z,5.60
2022-12-05T11:35:07.159Z,5.60
2022-12-05T11:37:41.028Z,5.60
2022-12-05T11:40:19.311Z,5.60
2022-12-05T11:43:00.641Z,5.60
2022-12-05T11:45:50.924Z,5.60
2022-12-05T11:48:27.012Z,5.60
2022-12-05T11:51:06.824Z,5.60
2022-12-05T11:53:44.338Z,5.60
2022-12-05T11:56:18.912Z,5.60
2022-12-05T11:58:56.258Z,5.60
2022-12-05T12:01:34.044Z,5.60
2022-12-05T12:04:16.322Z,5.70
2022-12-05T12:06:49.382Z,5.70
2022-12-05T12:09:25.210Z,5.70
2022-12-05T12:11:57.237Z,5.70
2022-12-05T12:14:29.559Z,5.70
2022-12-05T12:17:06.751Z,5.80
2022-12-05T12:19:47.796Z,5.80
2022-12-05T12:22:27.511Z,5.80
2022-12-05T12:25:05.027Z,5.80
2022-12-05T12:27:41.224Z,5.80
2022-12-05T12:30:15.182Z,5.80
2022-12-05T12:32:51.567Z,5.80
2022-12-05T12:35:30.320Z,5.80
2022-12-05T12:38:05.458Z,5.80
2022-12-05T12:40:38.576Z,5.80
2022-12-05T12:43:30.865Z,5.90
2022-12-05T12:46:13.923Z,5.90
2022-12-05T12:48:54.056Z,4.90
2022-12-05T12:51:26.149Z,5.90
2022-12-05T12:54:07.931Z,5.90
2022-12-05T12:56:41.042Z,5.90
2022-12-05T12:59:17.706Z,5.90
2022-12-05T13:01:49.538Z,5.90
2022-12-05T13:04:24.459Z,5.90
2022-12-05T13:06:58.942Z,5.90
2022-12-05T13:09:31.726Z,5.90
2022-12-05T13:12:04.352Z,5.90
2022-12-05T13:14:35.215Z,5.90
2022-12-05T13:17:05.651Z,6.00
2022-12-05T13:19:40.849Z,6.00
2022-12-05T13:22:13.864Z,6.00
2022-12-05T13:24:43.987Z,6.00
2022-12-05T13:27:21.069Z,6.00
2022-12-05T13:29:52.506Z,6.00
2022-12-05T13:32:30.655Z,6.00
2022-12-05T13:35:02.036Z,6.10
2022-12-05T13:37:46.867Z,6.10
2022-12-05T13:40:42.717Z,6.10
2022-12-05T13:43:15.090Z,6.10
2022-12-05T13:45:46.135Z,6.10
2022-12-05T13:48:21.221Z,6.10
2022-12-05T13:50:55.365Z,6.10
2022-12-05T13:53:42.486Z,6.10
2022-12-05T13:56:28.173Z,6.10
2022-12-05T13:59:01.136Z,6.10
2022-12-05T14:01:50.379Z,6.10
2022-12-05T14:04:50.324Z,6.10
2022-12-05T14:07:38.129Z,6.00
2022-12-05T14:10:08.858Z,6.00
2022-12-05T14:13:06.320Z,6.00
2022-12-05T14:15:43.761Z,6.00
2022-12-05T14:18:19.446Z,6.10
2022-12-05T14:21:02.785Z,6.10
2022-12-05T14:23:42.701Z,6.10
2022-12-05T14:26:22.015Z,6.10
2022-12-05T14:29:01.438Z,6.10
2022-12-05T14:31:48.816Z,6.10
2022-12-05T14:34:23.352Z,6.10
2022-12-05T14:37:00.940Z,6.10
2022-12-05T14:39:37.810Z,6.20
2022-12-05T14:42:10.452Z,6.20
2022-12-05T14:44:44.696Z,6.20
2022-12-05T14:47:26.036Z,6.20
2022-12-05T14:50:05.049Z,6.10
2022-12-05T14:52:41.770Z,6.10
2022-12-05T14:55:26.907Z,6.10
2022-12-05T14:58:01.588Z,6.10
2022-12-05T15:00:34.085Z,6.10
2022-12-05T15:03:12.262Z,6.10
2022-12-05T15:05:48.038Z,6.10
2022-12-05T15:08:19.040Z,6.20
2022-12-05T15:10:49.445Z,6.20
2022-12-05T15:13:21.843Z,6.20
2022-12-05T15:15:55.881Z,6.20
2022-12-05T15:18:33.042Z,6.20
2022-12-05T15:21:09.199Z,6.20
2022-12-05T15:23:54.242Z,6.20
2022-12-05T15:29:16.224Z,6.20
2022-12-05T15:31:48.184Z,6.20
2022-12-05T15:34:21.416Z,6.20
2022-12-05T15:36:53.544Z,6.20
2022-12-05T15:39:26.478Z,6.30
2022-12-05T15:41:56.287Z,6.30
2022-12-05T15:44:34.461Z,6.20
2022-12-05T15:47:05.598Z,6.30
2022-12-05T15:49:37.728Z,6.20
2022-12-05T15:52:11.131Z,6.30
2022-12-05T15:54:41.422Z,6.30
2022-12-05T15:57:12.136Z,6.20
2022-12-05T15:59:58.253Z,7.50
2022-12-05T16:02:36.435Z,6.30
2022-12-05T16:05:09.042Z,6.30
2022-12-05T16:07:41.277Z,6.30
2022-12-05T16:10:16.698Z,6.30
2022-12-05T16:12:46.677Z,6.30
2022-12-05T16:15:18.012Z,6.30
2022-12-05T16:17:49.849Z,6.30
2022-12-05T16:20:34.234Z,6.30
2022-12-05T16:23:07.692Z,6.30
2022-12-05T16:25:37.840Z,6.30
2022-12-05T16:28:18.547Z,6.30
2022-12-05T16:30:58.641Z,6.30
2022-12-05T16:33:28.911Z,6.30
2022-12-05T16:36:09.682Z,6.30
2022-12-05T16:38:40.901Z,6.20
2022-12-05T16:41:10.886Z,6.20
2022-12-05T16:43:47.575Z,6.10
2022-12-05T16:46:44.264Z,6.10
2022-12-05T16:49:18.987Z,6.10
2022-12-05T16:51:56.782Z,6.10
2022-12-05T16:54:26.252Z,6.10
2022-12-05T16:56:55.900Z,6.10
2022-12-05T16:59:27.023Z,6.10
2022-12-05T17:01:56.673Z,6.10
2022-12-05T17:04:26.358Z,6.10
2022-12-05T17:06:58.860Z,6.10
2022-12-05T17:09:28.481Z,6.10
2022-12-05T17:12:03.741Z,5.40
2022-12-05T17:14:33.277Z,6.10
2022-12-05T17:17:02.859Z,6.10
2022-12-05T17:19:34.794Z,6.10
2022-12-05T17:22:07.386Z,6.10
2022-12-05T17:24:37.069Z,6.20
2022-12-05T17:27:08.163Z,6.10
2022-12-05T17:29:37.728Z,6.10
2022-12-05T17:32:07.754Z,6.10
2022-12-05T17:34:37.262Z,6.10
2022-12-05T17:37:09.449Z,6.20
2022-12-05T17:39:39.057Z,6.20
2022-12-05T17:42:08.754Z,6.20
2022-12-05T17:44:38.448Z,6.20
2022-12-05T17:49:57.938Z,6.40
2022-12-05T17:52:30.899Z,6.20
2022-12-05T17:55:00.960Z,6.20
2022-12-05T17:57:30.703Z,6.30
2022-12-05T18:00:00.296Z,6.30
2022-12-05T18:02:30.406Z,6.30
2022-12-05T18:05:00.341Z,6.30
2022-12-05T18:07:32.800Z,6.30
2022-12-05T18:10:12.619Z,6.30
2022-12-05T18:12:43.123Z,6.30
2022-12-05T18:15:13.484Z,6.30
2022-12-05T18:17:43.555Z,6.30
2022-12-05T18:20:15.386Z,6.30
2022-12-05T18:22:48.857Z,6.40
2022-12-05T18:25:20.308Z,6.40
2022-12-05T18:27:49.876Z,6.40
2022-12-05T18:30:19.917Z,6.40
2022-12-05T18:32:49.821Z,6.40
2022-12-05T18:35:19.425Z,6.40
2022-12-05T18:37:51.607Z,6.40
2022-12-05T18:40:21.292Z,6.40
2022-12-05T18:42:50.968Z,6.40
2022-12-05T18:45:21.532Z,6.40
2022-12-05T18:47:52.740Z,6.40
2022-12-05T18:50:24.512Z,6.40
2022-12-05T18:52:58.627Z,6.40
2022-12-05T18:55:57.875Z,6.40
2022-12-05T18:58:17.813Z,6.40
2022-12-05T19:00:49.214Z,6.40
2022-12-05T19:03:18.798Z,6.40
2022-12-05T19:05:48.365Z,6.40
2022-12-05T19:08:23.912Z,6.40
2022-12-05T19:10:53.638Z,6.40
2022-12-05T19:13:23.431Z,6.40
2022-12-05T19:15:53.047Z,6.40
2022-12-05T19:18:22.600Z,6.40
2022-12-05T19:20:53.538Z,6.40
2022-12-05T19:23:25.911Z,6.40
2022-12-05T19:25:56.859Z,6.40
2022-12-05T19:28:26.604Z,6.40
2022-12-05T19:31:01.407Z,6.50
2022-12-05T19:33:34.633Z,6.40
2022-12-05T19:36:05.647Z,6.50
